• Join FlightAware (Why Join?)
  • Login
  • US Flag 
 
02:15AM EST


 

Airport Tracker/Info


-or-


 

Live Flight TrackerFlight Track Log ✈ SKW6335 ✈ 03-May-2013 ✈ KLAX - KSAN

Flight Track Log - Related Links

Times and Time Zones

All times are in EDT time to prevent confusion due to time zone crossing. See the SKW6335 flight status page for this flight to view local times or setup timezone preferences in your user account.

Time Position Orientation Groundspeed Altitude Reporting Facility
EDT Latitude Longitude Course Direction KTS MPH feet Rate Location/Type
05:55PM 33.9333 -118.4333 140° Southeast 160 184 1,600  Level Southern California TRACON
05:56PM 33.8833 -118.4833 220° Southwest 201 231 3,000 1,380 Climbing Southern California TRACON
05:57PM 33.8333 -118.4833 180° South 203 234 4,300 1,320 Climbing Southern California TRACON
05:57PM 33.8342 -118.4928 276° West 203 234 4,600 1,440 Climbing Los Angeles Center
05:58PM 33.6897 -118.1495 139° Southeast  Level Estimated
05:58PM 33.7717 -118.5108 194° South 201 231 6,300  Level Los Angeles Center
05:59PM 33.6266 -118.0847 139° Southeast  Level FlightAware Approximate
05:59PM 33.7267 -118.4722 144° Southeast 198 228 7,700  Level Los Angeles Center
06:00PM 33.5635 -118.0201 140° Southeast  Level FlightAware Approximate
06:00PM 33.6742 -118.4131 137° Southeast 222 255 8,600  Level Los Angeles Center
06:01PM 33.6381 -118.3467 123° Southeast 235 270 9,100 240 Climbing Los Angeles Center
06:02PM 33.5983 -118.2783 125° Southeast 246 283 9,100 -60 Level Los Angeles Center
06:03PM 33.5622 -118.2119 123° Southeast 245 282 9,000 -60 Descending Los Angeles Center
06:04PM 33.5206 -118.1333 122° Southeast 239 275 9,000  Level Los Angeles Center
06:05PM 33.4869 -118.0675 121° Southeast 236 272 9,000  Level Los Angeles Center
06:06PM 33.4542 -118.0017 121° Southeast 233 268 9,000  Level Los Angeles Center
06:07PM 33.4200 -117.9375 123° Southeast 231 266 9,000  Level Los Angeles Center
06:08PM 33.3839 -117.8750 125° Southeast 229 264 9,000  Level Los Angeles Center
06:10PM 33.3442 -117.8047 124° Southeast 235 270 9,000  Level Los Angeles Center
06:11PM 33.3042 -117.7331 124° Southeast 234 269 9,000  Level Los Angeles Center
06:12PM 33.2689 -117.6667 122° Southeast 236 272 9,000  Level Los Angeles Center
06:13PM 33.2350 -117.6000 121° Southeast 236 272 9,000  Level Los Angeles Center
06:13PM 33.2167 -117.5833 143° Southeast 235 270 9,000  Level Southern California TRACON
06:14PM 33.1833 -117.5000 116° Southeast 237 273 9,000 -300 Level Southern California TRACON
06:15PM 33.1500 -117.4333 121° Southeast 248 285 8,500 -480 Descending Southern California TRACON
06:16PM 33.1125 -117.3917 137° Southeast 246 283 8,200 -540 Descending Los Angeles Center
06:17PM 33.0433 -117.3611 160° South 257 296 7,600 -600 Descending Los Angeles Center
06:18PM 32.9667 -117.3333 163° South 258 297 7,000 -360 Descending Southern California TRACON
06:19PM 32.9000 -117.2833 148° Southeast 245 282 6,900 -60 Descending Southern California TRACON
06:20PM 32.8500 -117.2500 151° Southeast 237 273 6,900 -420 Level Southern California TRACON
06:21PM 32.8167 -117.1667 115° Southeast 249 287 6,100 -1,080 Descending Southern California TRACON
06:22PM 32.7833 -117.1167 128° Southeast 209 241 4,700 -1,920 Descending Southern California TRACON
06:23PM 32.7500 -117.1000 157° South 174 200 2,500 -2,400 Descending Southern California TRACON